createdAt,value
2023-05-25T00:00:07.278Z,14.70
2023-05-25T00:02:37.043Z,14.70
2023-05-25T00:05:14.193Z,14.52
2023-05-25T00:07:43.843Z,14.53
2023-05-25T00:10:13.834Z,14.65
2023-05-25T00:12:45.315Z,14.65
2023-05-25T00:17:58.674Z,14.53
2023-05-25T00:20:41.069Z,14.61
2023-05-25T00:23:10.578Z,14.52
2023-05-25T00:25:40.015Z,14.56
2023-05-25T00:31:08.735Z,14.55
2023-05-25T00:33:40.122Z,14.33
2023-05-25T00:36:12.031Z,14.38
2023-05-25T00:38:43.545Z,14.46
2023-05-25T00:41:14.523Z,14.20
2023-05-25T00:43:51.146Z,14.12
2023-05-25T00:46:20.055Z,14.33
2023-05-25T00:48:50.570Z,14.34
2023-05-25T00:51:35.020Z,14.24
2023-05-25T00:54:06.198Z,14.29
2023-05-25T00:56:54.495Z,14.23
2023-05-25T00:59:36.254Z,14.33
2023-05-25T01:02:18.904Z,14.13
2023-05-25T01:04:53.527Z,14.12
2023-05-25T01:13:55.532Z,14.23
2023-05-25T01:19:17.686Z,14.06
2023-05-25T01:22:00.957Z,13.97
2023-05-25T01:24:43.148Z,13.84
2023-05-25T01:33:36.350Z,13.86
2023-05-25T01:39:13.231Z,13.71
2023-05-25T01:41:50.208Z,13.71
2023-05-25T01:44:24.114Z,13.71
2023-05-25T01:47:11.302Z,13.43
2023-05-25T01:49:54.150Z,13.55
2023-05-25T01:52:35.172Z,13.60
2023-05-25T01:55:25.796Z,13.57
2023-05-25T01:58:01.655Z,13.61
2023-05-25T02:00:33.637Z,13.53
2023-05-25T02:03:04.145Z,13.49
2023-05-25T02:05:33.981Z,13.50
2023-05-25T02:08:05.729Z,13.52
2023-05-25T02:10:37.701Z,13.50
2023-05-25T02:13:11.890Z,13.45
2023-05-25T02:15:55.605Z,13.36
2023-05-25T02:18:26.633Z,13.33
2023-05-25T02:23:43.601Z,13.22
2023-05-25T02:26:14.240Z,13.29
2023-05-25T02:28:44.632Z,13.10
2023-05-25T02:31:19.457Z,13.19
2023-05-25T02:33:54.726Z,13.15
2023-05-25T02:36:25.959Z,13.01
2023-05-25T02:41:45.781Z,13.05
2023-05-25T02:44:19.257Z,13.13
2023-05-25T02:46:49.079Z,13.12
2023-05-25T02:49:34.153Z,13.04
2023-05-25T02:52:12.263Z,12.83
2023-05-25T02:57:36.021Z,12.89
2023-05-25T03:00:10.956Z,12.88
2023-05-25T03:05:53.132Z,12.86
2023-05-25T03:08:30.099Z,12.75
2023-05-25T03:11:15.027Z,12.63
2023-05-25T03:13:56.875Z,12.66
2023-05-25T03:25:05.999Z,12.60
2023-05-25T03:30:55.189Z,12.68
2023-05-25T03:33:28.801Z,12.64
2023-05-25T03:47:14.559Z,12.68
2023-05-25T03:52:42.746Z,12.73
2023-05-25T03:58:05.622Z,12.72
2023-05-25T04:00:35.712Z,12.55
2023-05-25T04:03:23.431Z,12.63
2023-05-25T04:05:54.183Z,12.40
2023-05-25T04:08:26.277Z,12.65
2023-05-25T04:10:56.364Z,12.74
2023-05-25T04:16:36.614Z,12.77
2023-05-25T04:19:26.216Z,12.68
2023-05-25T04:21:57.047Z,12.96
2023-05-25T04:24:27.213Z,13.01
2023-05-25T04:27:02.939Z,13.05
2023-05-25T04:29:34.753Z,13.10
2023-05-25T04:32:08.072Z,13.12
2023-05-25T04:34:51.279Z,13.15
2023-05-25T04:37:34.424Z,13.36
2023-05-25T04:48:57.751Z,13.50
2023-05-25T04:52:26.445Z,13.67
2023-05-25T04:55:08.534Z,13.73
2023-05-25T05:00:57.518Z,13.88
2023-05-25T05:03:41.702Z,14.05
2023-05-25T05:09:02.686Z,14.27
2023-05-25T05:11:42.662Z,14.35
2023-05-25T05:14:31.886Z,14.47
2023-05-25T05:17:03.630Z,14.23
2023-05-25T05:19:46.171Z,14.61
2023-05-25T05:22:16.961Z,14.61
2023-05-25T05:24:53.616Z,14.96
2023-05-25T05:27:38.349Z,15.11
2023-05-25T05:30:15.501Z,15.18
2023-05-25T05:32:50.211Z,15.36
2023-05-25T05:35:22.109Z,15.39
2023-05-25T05:37:51.602Z,15.43
2023-05-25T05:40:29.927Z,15.77
2023-05-25T05:43:02.204Z,15.74
2023-05-25T05:45:31.674Z,15.96
2023-05-25T05:48:14.930Z,15.76
2023-05-25T05:50:46.582Z,16.16
2023-05-25T05:56:26.507Z,16.02
2023-05-25T05:59:01.152Z,16.28
2023-05-25T06:01:32.337Z,16.36
2023-05-25T06:04:15.201Z,16.33
2023-05-25T06:06:46.549Z,16.40
2023-05-25T06:09:20.488Z,16.63
2023-05-25T06:17:27.394Z,17.16
2023-05-25T06:19:57.796Z,16.89
2023-05-25T06:22:29.610Z,17.55
2023-05-25T06:25:02.981Z,17.52
2023-05-25T06:27:34.403Z,17.55
2023-05-25T06:30:06.983Z,17.60
2023-05-25T06:32:37.329Z,17.75
2023-05-25T06:35:09.674Z,18.08
2023-05-25T06:37:43.386Z,18.19
2023-05-25T06:40:13.588Z,17.99
2023-05-25T06:42:59.532Z,17.50
2023-05-25T06:45:46.750Z,18.06
2023-05-25T06:48:17.775Z,17.97
2023-05-25T06:50:47.507Z,18.04
2023-05-25T06:53:17.787Z,18.11
2023-05-25T06:55:51.986Z,18.46
2023-05-25T07:01:45.919Z,18.31
2023-05-25T07:04:17.169Z,18.60
2023-05-25T07:06:49.007Z,18.59
2023-05-25T07:09:33.725Z,18.40
2023-05-25T07:12:16.677Z,19.01
2023-05-25T07:14:48.445Z,18.58
2023-05-25T07:20:05.193Z,19.20
2023-05-25T07:22:37.704Z,19.27
2023-05-25T07:25:15.249Z,19.35
2023-05-25T07:30:49.089Z,19.42
2023-05-25T07:33:34.573Z,19.40
2023-05-25T07:36:04.829Z,19.53
2023-05-25T07:38:34.140Z,19.99
2023-05-25T07:41:07.653Z,20.51
2023-05-25T07:43:37.664Z,19.92
2023-05-25T07:46:12.285Z,20.34
2023-05-25T07:48:50.716Z,20.08
2023-05-25T07:51:21.408Z,20.27
2023-05-25T07:53:52.572Z,20.06
2023-05-25T07:56:27.396Z,20.46
2023-05-25T07:59:02.447Z,20.89
2023-05-25T08:01:31.325Z,20.76
2023-05-25T08:09:41.301Z,21.02
2023-05-25T08:12:34.351Z,20.88
2023-05-25T08:15:06.655Z,21.18
2023-05-25T08:17:36.213Z,21.53
2023-05-25T08:20:27.822Z,21.62
2023-05-25T08:25:48.245Z,21.97
2023-05-25T08:31:12.483Z,22.51
2023-05-25T08:33:45.032Z,21.96
2023-05-25T08:36:30.221Z,21.77
2023-05-25T08:41:46.202Z,22.05
2023-05-25T08:44:19.811Z,21.97
2023-05-25T08:46:58.230Z,22.38
2023-05-25T08:49:31.482Z,21.91
2023-05-25T08:52:15.886Z,21.71
2023-05-25T08:54:49.879Z,21.95
2023-05-25T08:57:25.100Z,22.03
2023-05-25T09:00:02.589Z,21.97
2023-05-25T09:02:40.437Z,22.32
2023-05-25T09:05:24.982Z,21.28
2023-05-25T09:07:56.615Z,21.66
2023-05-25T09:10:29.926Z,21.65
2023-05-25T09:15:42.880Z,21.13
2023-05-25T09:21:14.879Z,20.82
2023-05-25T09:23:43.947Z,21.18
2023-05-25T09:26:12.702Z,21.19
2023-05-25T09:28:48.049Z,21.16
2023-05-25T09:31:16.961Z,21.18
2023-05-25T09:33:47.074Z,21.86
2023-05-25T09:36:22.043Z,21.79
2023-05-25T09:38:51.545Z,22.29
2023-05-25T09:41:21.005Z,22.45
2023-05-25T09:46:23.016Z,22.03
2023-05-25T09:48:53.436Z,22.65
2023-05-25T09:51:23.467Z,22.74
2023-05-25T09:53:52.035Z,22.93
2023-05-25T09:56:20.327Z,23.10
2023-05-25T09:58:48.593Z,22.72
2023-05-25T10:01:17.567Z,22.75
2023-05-25T10:03:59.685Z,22.97
2023-05-25T10:06:35.176Z,22.82
2023-05-25T10:09:05.214Z,23.23
2023-05-25T10:11:36.347Z,23.32
2023-05-25T10:14:08.706Z,22.69
2023-05-25T10:16:41.173Z,22.57
2023-05-25T10:19:22.050Z,22.44
2023-05-25T10:21:59.523Z,22.57
2023-05-25T10:24:36.917Z,22.60
2023-05-25T10:27:18.451Z,22.52
2023-05-25T10:29:56.014Z,22.76
2023-05-25T10:32:25.482Z,22.98
2023-05-25T10:34:54.691Z,22.74
2023-05-25T10:37:27.641Z,22.34
2023-05-25T10:39:58.167Z,21.93
2023-05-25T10:42:29.916Z,22.28
2023-05-25T10:44:59.358Z,22.42
2023-05-25T10:47:29.037Z,21.15
2023-05-25T10:49:59.504Z,21.48
2023-05-25T10:52:34.231Z,21.76
2023-05-25T10:55:05.051Z,22.07
2023-05-25T10:57:34.167Z,21.63
2023-05-25T11:00:07.183Z,21.87
2023-05-25T11:02:53.761Z,21.98
2023-05-25T11:05:38.321Z,22.31
2023-05-25T11:08:10.086Z,21.93
2023-05-25T11:11:00.455Z,22.49
2023-05-25T11:13:40.623Z,22.06
2023-05-25T11:16:22.158Z,22.78
2023-05-25T11:18:58.871Z,22.97
2023-05-25T11:21:45.619Z,22.84
2023-05-25T11:24:19.192Z,23.18
2023-05-25T11:27:00.980Z,22.35
2023-05-25T11:29:33.273Z,22.80
2023-05-25T11:32:02.876Z,23.60
2023-05-25T11:34:33.203Z,23.47
2023-05-25T11:37:05.192Z,23.66
2023-05-25T11:39:35.058Z,23.66
2023-05-25T11:42:07.850Z,24.20
2023-05-25T11:44:39.126Z,23.42
2023-05-25T11:47:10.151Z,23.77
2023-05-25T11:49:44.930Z,24.39
2023-05-25T11:52:15.135Z,24.00
2023-05-25T11:54:45.999Z,24.12
2023-05-25T11:57:18.624Z,23.43
2023-05-25T11:59:51.121Z,24.24
2023-05-25T12:02:20.426Z,24.07
2023-05-25T12:04:56.253Z,24.16
2023-05-25T12:07:26.256Z,24.15
2023-05-25T12:10:07.545Z,23.44
2023-05-25T12:12:41.920Z,24.70
2023-05-25T12:15:12.723Z,24.24
2023-05-25T12:17:43.814Z,24.26
2023-05-25T12:20:15.187Z,24.64
2023-05-25T12:22:45.119Z,24.87
2023-05-25T12:25:16.041Z,23.97
2023-05-25T12:27:45.022Z,24.42
2023-05-25T12:30:13.548Z,24.53
2023-05-25T12:32:55.803Z,24.17
2023-05-25T12:35:24.731Z,24.33
2023-05-25T12:38:11.484Z,24.16
2023-05-25T12:40:42.591Z,25.41
2023-05-25T12:43:13.114Z,25.06
2023-05-25T12:45:42.493Z,25.28
2023-05-25T12:48:11.974Z,24.71
2023-05-25T12:50:41.102Z,25.62
2023-05-25T12:53:09.793Z,24.88
2023-05-25T12:55:41.623Z,25.43
2023-05-25T12:58:26.558Z,25.70
2023-05-25T13:00:55.181Z,25.22
2023-05-25T13:03:24.572Z,26.06
2023-05-25T13:06:00.992Z,25.67
2023-05-25T13:08:29.615Z,26.32
2023-05-25T13:10:59.994Z,25.91
2023-05-25T13:13:28.153Z,26.09
2023-05-25T13:15:58.254Z,26.29
2023-05-25T13:18:26.794Z,26.62
2023-05-25T13:20:56.882Z,26.99
2023-05-25T13:23:25.997Z,26.79
2023-05-25T13:25:54.357Z,26.97
2023-05-25T13:28:24.183Z,26.65
2023-05-25T13:30:52.485Z,26.70
2023-05-25T13:33:20.742Z,26.84
2023-05-25T13:35:58.960Z,26.44
2023-05-25T13:38:27.850Z,26.60
2023-05-25T13:40:57.548Z,27.03
2023-05-25T13:43:28.074Z,27.32
2023-05-25T13:45:56.837Z,27.33
2023-05-25T13:48:25.094Z,27.27
2023-05-25T13:50:53.433Z,27.55
2023-05-25T13:53:21.805Z,28.45
2023-05-25T13:55:50.104Z,27.79
2023-05-25T13:58:18.915Z,27.59
2023-05-25T14:00:49.469Z,27.14
2023-05-25T14:03:18.506Z,28.24
2023-05-25T14:05:47.450Z,28.41
2023-05-25T14:08:16.066Z,28.23
2023-05-25T14:10:44.794Z,29.66
2023-05-25T14:13:14.071Z,29.42
2023-05-25T14:15:43.099Z,29.60
2023-05-25T14:18:13.220Z,29.41
2023-05-25T14:20:42.892Z,29.66
2023-05-25T14:23:14.364Z,29.70
2023-05-25T14:25:44.572Z,29.81
2023-05-25T14:28:13.635Z,29.42
2023-05-25T14:30:42.113Z,29.63
2023-05-25T14:33:14.367Z,29.72
2023-05-25T14:35:43.559Z,30.24
2023-05-25T14:38:12.259Z,29.62
2023-05-25T14:40:40.923Z,29.63
2023-05-25T14:43:23.146Z,30.71
2023-05-25T14:45:51.586Z,30.21
2023-05-25T14:48:25.483Z,29.90
2023-05-25T14:50:54.408Z,30.86
2023-05-25T14:53:22.849Z,30.65
2023-05-25T14:55:58.674Z,30.58
2023-05-25T14:58:27.244Z,30.35
2023-05-25T15:00:55.798Z,29.59
2023-05-25T15:03:26.065Z,30.11
2023-05-25T15:05:54.547Z,29.73
2023-05-25T15:08:22.927Z,30.30
2023-05-25T15:10:51.987Z,30.94
2023-05-25T15:13:22.767Z,29.91
2023-05-25T15:15:54.700Z,30.41
2023-05-25T15:18:25.082Z,30.18
2023-05-25T15:20:54.310Z,31.09
2023-05-25T15:23:22.851Z,29.69
2023-05-25T15:25:51.165Z,31.31
2023-05-25T15:28:19.863Z,30.63
2023-05-25T15:30:48.545Z,30.96
2023-05-25T15:33:17.032Z,29.25
2023-05-25T15:35:47.311Z,31.02
2023-05-25T15:38:15.895Z,30.12
2023-05-25T15:40:48.775Z,28.96
2023-05-25T15:43:17.309Z,30.44
2023-05-25T15:46:15.149Z,29.94
2023-05-25T15:48:43.995Z,30.60
2023-05-25T15:51:14.749Z,31.48
2023-05-25T15:54:01.775Z,30.50
2023-05-25T15:56:31.812Z,30.16
2023-05-25T15:59:02.992Z,30.72
2023-05-25T16:04:28.177Z,30.54
2023-05-25T16:06:58.956Z,30.10
2023-05-25T16:09:28.681Z,30.74
2023-05-25T16:11:57.320Z,29.77
2023-05-25T16:14:25.743Z,29.41
2023-05-25T16:16:54.272Z,29.38
2023-05-25T16:19:22.622Z,28.75
2023-05-25T16:21:51.169Z,29.37
2023-05-25T16:24:21.629Z,28.86
2023-05-25T16:26:50.361Z,28.81
2023-05-25T16:29:19.617Z,28.80
2023-05-25T16:31:48.421Z,28.90
2023-05-25T16:34:20.894Z,29.22
2023-05-25T16:36:49.969Z,28.38
2023-05-25T16:39:24.405Z,29.85
2023-05-25T16:41:56.355Z,28.57
2023-05-25T16:44:39.296Z,28.22
2023-05-25T16:47:08.644Z,27.23
2023-05-25T16:49:38.210Z,27.45
2023-05-25T16:52:23.058Z,26.88
2023-05-25T16:54:55.831Z,25.91
2023-05-25T16:57:24.777Z,25.57
2023-05-25T16:59:54.410Z,24.92
2023-05-25T17:02:23.335Z,24.56
2023-05-25T17:04:52.280Z,23.74
2023-05-25T17:07:20.901Z,23.32
2023-05-25T17:09:49.545Z,23.26
2023-05-25T17:12:20.627Z,23.19
2023-05-25T17:14:49.829Z,22.24
2023-05-25T17:17:18.960Z,21.79
2023-05-25T17:19:47.628Z,21.49
2023-05-25T17:22:16.273Z,21.45
2023-05-25T17:24:45.050Z,20.90
2023-05-25T17:27:13.855Z,20.99
2023-05-25T17:29:44.531Z,20.35
2023-05-25T17:32:13.200Z,20.23
2023-05-25T17:34:41.841Z,19.85
2023-05-25T17:37:10.347Z,20.07
2023-05-25T17:39:40.660Z,19.34
2023-05-25T17:42:14.454Z,19.56
2023-05-25T17:44:44.507Z,19.16
2023-05-25T17:47:13.030Z,19.40
2023-05-25T17:49:42.269Z,19.24
2023-05-25T17:52:11.030Z,18.62
2023-05-25T17:54:39.643Z,18.55
2023-05-25T17:57:08.015Z,18.59
2023-05-25T17:59:36.838Z,18.70
2023-05-25T18:02:10.271Z,18.22
2023-05-25T18:04:39.142Z,18.43
2023-05-25T18:07:07.531Z,17.98
2023-05-25T18:09:35.943Z,18.25
2023-05-25T18:12:04.740Z,17.97
2023-05-25T18:14:37.536Z,18.14
2023-05-25T18:17:07.490Z,17.99
2023-05-25T18:19:35.933Z,17.88
2023-05-25T18:22:04.493Z,17.96
2023-05-25T18:24:32.941Z,17.77
2023-05-25T18:27:03.832Z,17.84
2023-05-25T18:29:32.309Z,17.68
2023-05-25T18:32:00.823Z,17.50
2023-05-25T18:34:30.615Z,17.20
2023-05-25T18:36:58.986Z,17.34
2023-05-25T18:39:27.674Z,17.29
2023-05-25T18:41:56.133Z,16.78
2023-05-25T18:44:24.981Z,16.64
2023-05-25T18:46:55.487Z,17.05
2023-05-25T18:49:24.557Z,17.17
2023-05-25T18:51:54.451Z,16.79
2023-05-25T18:54:25.706Z,16.85
2023-05-25T18:56:55.115Z,16.62
2023-05-25T18:59:26.455Z,16.60
2023-05-25T19:02:11.241Z,16.89
2023-05-25T19:04:40.224Z,16.68
2023-05-25T19:07:15.808Z,16.47
2023-05-25T19:10:04.319Z,16.03
2023-05-25T19:12:33.112Z,16.56
2023-05-25T19:15:01.837Z,16.31
2023-05-25T19:17:34.475Z,16.10
2023-05-25T19:20:04.038Z,16.32
2023-05-25T19:22:34.197Z,16.44
2023-05-25T19:25:02.641Z,16.47
2023-05-25T19:27:31.268Z,16.17
2023-05-25T19:30:00.471Z,16.26
2023-05-25T19:32:29.569Z,16.18
2023-05-25T19:34:58.446Z,15.85
2023-05-25T19:37:27.897Z,15.96
2023-05-25T19:39:59.651Z,15.65
2023-05-25T19:42:33.916Z,15.89
2023-05-25T19:45:05.862Z,15.86
2023-05-25T19:47:35.854Z,15.57
2023-05-25T19:50:22.125Z,15.53
2023-05-25T19:52:56.950Z,15.60
2023-05-25T19:55:37.092Z,15.48
2023-05-25T20:01:14.078Z,15.36
2023-05-25T20:03:45.836Z,15.41
2023-05-25T20:06:17.303Z,15.11
2023-05-25T20:08:49.897Z,15.06
2023-05-25T20:14:07.729Z,15.34
2023-05-25T20:16:36.496Z,15.10
2023-05-25T20:19:07.748Z,14.77
2023-05-25T20:21:47.926Z,14.82
2023-05-25T20:24:25.945Z,15.13
2023-05-25T20:26:59.881Z,14.73
2023-05-25T20:29:29.768Z,14.65
2023-05-25T20:31:58.732Z,14.93
2023-05-25T20:34:28.275Z,14.80
2023-05-25T20:36:57.227Z,14.95
2023-05-25T20:39:27.243Z,14.83
2023-05-25T20:41:58.856Z,14.96
2023-05-25T20:44:31.992Z,14.80
2023-05-25T20:47:01.424Z,14.58
2023-05-25T20:49:31.424Z,14.72
2023-05-25T20:52:01.401Z,14.56
2023-05-25T20:54:30.104Z,14.70
2023-05-25T20:57:03.931Z,14.72
2023-05-25T20:59:32.838Z,14.50
2023-05-25T21:02:01.483Z,14.47
2023-05-25T21:04:31.833Z,14.54
2023-05-25T21:07:01.301Z,14.36
2023-05-25T21:09:30.251Z,14.41
2023-05-25T21:12:01.877Z,14.40
2023-05-25T21:14:31.066Z,14.16
2023-05-25T21:16:59.830Z,14.43
2023-05-25T21:19:28.762Z,14.36
2023-05-25T21:21:57.662Z,14.33
2023-05-25T21:24:26.362Z,14.01
2023-05-25T21:26:55.048Z,14.25
2023-05-25T21:29:25.048Z,14.09
2023-05-25T21:31:53.821Z,14.00
2023-05-25T21:34:25.084Z,13.71
2023-05-25T21:36:54.202Z,13.90
2023-05-25T21:39:23.474Z,14.03
2023-05-25T21:41:54.012Z,13.89
2023-05-25T21:44:27.431Z,13.91
2023-05-25T21:46:57.173Z,13.56
2023-05-25T21:49:29.293Z,13.71
2023-05-25T21:51:58.597Z,13.87
2023-05-25T21:54:31.732Z,13.97
2023-05-25T21:57:01.905Z,13.69
2023-05-25T21:59:32.526Z,13.54
2023-05-25T22:02:03.960Z,13.56
2023-05-25T22:04:40.456Z,13.70
2023-05-25T22:07:09.701Z,13.55
2023-05-25T22:09:40.597Z,13.74
2023-05-25T22:12:15.043Z,13.24
2023-05-25T22:14:49.658Z,13.38
2023-05-25T22:17:19.233Z,13.28
2023-05-25T22:20:03.141Z,12.86
2023-05-25T22:22:41.090Z,13.13
2023-05-25T22:25:10.689Z,13.51
2023-05-25T22:27:39.892Z,13.42
2023-05-25T22:30:12.378Z,13.24
2023-05-25T22:32:41.268Z,13.30
2023-05-25T22:35:10.753Z,13.28
2023-05-25T22:37:42.416Z,13.28
2023-05-25T22:40:14.511Z,13.32
2023-05-25T22:42:50.646Z,13.17
2023-05-25T22:45:23.924Z,13.13
2023-05-25T22:47:52.941Z,12.99
2023-05-25T22:50:22.452Z,13.03
2023-05-25T22:52:50.859Z,12.60
2023-05-25T22:55:19.316Z,12.88
2023-05-25T22:57:47.904Z,13.11
2023-05-25T23:00:16.995Z,13.08
2023-05-25T23:02:47.056Z,13.07
2023-05-25T23:05:15.604Z,12.69
2023-05-25T23:07:44.008Z,12.87
2023-05-25T23:10:12.722Z,12.78
2023-05-25T23:12:41.125Z,12.89
2023-05-25T23:15:11.459Z,12.78
2023-05-25T23:17:39.997Z,12.84
2023-05-25T23:20:11.463Z,12.62
2023-05-25T23:22:39.771Z,12.86
2023-05-25T23:25:09.910Z,12.70
2023-05-25T23:27:38.439Z,12.77
2023-05-25T23:30:09.302Z,12.86
2023-05-25T23:32:37.838Z,12.70
2023-05-25T23:35:07.761Z,12.78
2023-05-25T23:37:37.819Z,12.53
2023-05-25T23:40:08.099Z,12.62
2023-05-25T23:42:40.235Z,12.62
2023-05-25T23:45:10.277Z,12.67
2023-05-25T23:47:38.750Z,12.73
2023-05-25T23:50:08.231Z,12.58
2023-05-25T23:52:38.206Z,12.72
2023-05-25T23:55:08.905Z,12.59
2023-05-25T23:57:37.760Z,12.59
